Williamsburg, West Virginia
Current Conditions -  °F | °C
As of 11:35 PM on Thursday 20 Nov 2014 (Local Time) from KLWB Reporting Station
Clear Clear  
Wind Chill: 28°   Ceiling: Unl
Heat Index: 28°   Visibility: 10mi
Dew Point: 16°   Wind: 3mph
Humidity: 61%   Direction: 280°W
Pressure: 30.13"   Gusts: NA
Location:  37.97°N, 80.49°W
Report Text: KLWB 210435Z AUTO 28003KT 10SM CLR M02/M09 A3013 RMK AO2 T10211087
Loading
Personal Weather Stations






























Interactive Weather Map New forecast layout! Learn more

10-Day Weather Forecast

Advertisements
Track Severe Weather on mobile